Home > Products > Valid Products > MTR

000
SAUS45 KLKN 310454
MTRP68
METAR KP68 310453Z AUTO 19007KT 12/M12 A3010 RMK AO1 SLP138
T01221117





000
SAUS45 KLKN 310355
MTRP68
METAR KP68 310353Z AUTO 22007KT 12/M14 A3008 RMK AO1 SLP140
T01171139





000
SAUS45 KLKN 310255
MTRP68
METAR KP68 310253Z AUTO 18007KT 14/M15 A3007 RMK AO1 SLP141
T01441150 55000





000
SAUS45 KLKN 310154
MTRP68
METAR KP68 310153Z AUTO VRB03KT 20/M15 A3006 RMK AO1 SLP136
T02001150





000
SAUS45 KLKN 310154
MTRP68
METAR KP68 310153Z AUTO VRB03KT 20/M15 A3006 RMK AO1 SLP136
T02001150





000
SAUS45 KLKN 310055
MTRP68
METAR KP68 310053Z AUTO 15005KT 23/M18 A3007 RMK AO1 SLP133
T02281183





000
SAUS45 KLKN 310055
MTRP68
METAR KP68 310053Z AUTO 15005KT 23/M18 A3007 RMK AO1 SLP133
T02281183





000
SAUS45 KLKN 302355
MTRP68
METAR KP68 302353Z AUTO 15009G17KT 130V190 24/M16 A3007 RMK AO1
SLP128 T02391161 10244 20167 56025





000
SAUS45 KLKN 302355
MTRP68
METAR KP68 302353Z AUTO 15009G17KT 130V190 24/M16 A3007 RMK AO1
SLP128 T02391161 10244 20167 56025





000
SAUS45 KLKN 302255
MTRP68
METAR KP68 302253Z AUTO 19004G16KT 23/M16 A3009 RMK AO1 SLP140
T02331156





000
SAUS45 KLKN 302255
MTRP68
METAR KP68 302253Z AUTO 19004G16KT 23/M16 A3009 RMK AO1 SLP140
T02331156





000
SAUS45 KLKN 302155
MTRP68
METAR KP68 302153Z AUTO 17005KT 23/M14 A3012 RMK AO1 SLP152
T02281139





000
SAUS45 KLKN 302155
MTRP68
METAR KP68 302153Z AUTO 17005KT 23/M14 A3012 RMK AO1 SLP152
T02281139





000
SAUS45 KLKN 302055
MTRP68
METAR KP68 302053Z AUTO VRB03KT 22/M14 A3016 RMK AO1 SLP163
T02221139 58024





000
SAUS45 KLKN 301954
MTRP68
METAR KP68 301953Z AUTO 04007KT 350V090 22/M12 A3020 RMK AO1 SLP178
T02171117





000
SAUS45 KLKN 301954
MTRP68
METAR KP68 301953Z AUTO 04007KT 350V090 22/M12 A3020 RMK AO1 SLP178
T02171117





000
SAUS45 KLKN 301854
MTRP68
METAR KP68 301853Z AUTO VRB03KT 20/M12 A3023 RMK AO1 SLP189
T02001122





000
SAUS45 KLKN 301854
MTRP68
METAR KP68 301853Z AUTO VRB03KT 20/M12 A3023 RMK AO1 SLP189
T02001122





000
SAUS45 KLKN 301754
MTRP68
METAR KP68 301753Z AUTO 00000KT 17/M14 A3024 RMK AO1 SLP197
T01671144 10167 21017 50000





000
SAUS45 KLKN 301754
MTRP68
METAR KP68 301753Z AUTO 00000KT 17/M14 A3024 RMK AO1 SLP197
T01671144 10167 21017 50000





000
SAUS45 KLKN 301655
MTRP68
METAR KP68 301653Z AUTO 00000KT 13/M12 A3026 RMK AO1 SLP202
T01331117





000
SAUS45 KLKN 301655
MTRP68
METAR KP68 301653Z AUTO 00000KT 13/M12 A3026 RMK AO1 SLP202
T01331117





000
SAUS45 KLKN 301555
MTRP68
METAR KP68 301553Z AUTO 04004KT 10/M11 A3026 RMK AO1 SLP205
T01001111





000
SAUS45 KLKN 301454
MTRP68
METAR KP68 301453Z AUTO 00000KT 06/M12 A3024 RMK AO1 SLP204
T00561122 53006





000
SAUS45 KLKN 301454
MTRP68
METAR KP68 301453Z AUTO 00000KT 06/M12 A3024 RMK AO1 SLP204
T00561122 53006





000
SAUS45 KLKN 301354
MTRP68
METAR KP68 301353Z AUTO 20008KT 00/M13 A3024 RMK AO1 SLP203
T00001128





000
SAUS45 KLKN 301254
MTRP68
METAR KP68 301253Z AUTO 19007KT 01/M13 A3023 RMK AO1 SLP191
T00061133





000
SAUS45 KLKN 301254
MTRP68
METAR KP68 301253Z AUTO 19007KT 01/M13 A3023 RMK AO1 SLP191
T00061133





000
SAUS45 KLKN 301155
MTRP68
METAR KP68 301153Z AUTO 20008KT 02/M13 A3022 RMK AO1 SLP188
T00221128 10061 21017 55002





000
SAUS45 KLKN 301155
MTRP68
METAR KP68 301153Z AUTO 20008KT 02/M13 A3022 RMK AO1 SLP188
T00221128 10061 21017 55002





000
SAUS45 KLKN 301054
MTRP68
METAR KP68 301053Z AUTO 20007KT 01/M13 A3022 RMK AO1 SLP189
T00111128





000
SAUS45 KLKN 301054
MTRP68
METAR KP68 301053Z AUTO 20007KT 01/M13 A3022 RMK AO1 SLP189
T00111128





000
SAUS45 KLKN 300954
MTRP68
METAR KP68 300953Z AUTO 17005KT 01/M12 A3022 RMK AO1 SLP191
T00061122





000
SAUS45 KLKN 300855
MTRP68
METAR KP68 300853Z AUTO 15004KT 02/M12 A3023 RMK AO1 SLP193
T00171122 51005





000
SAUS45 KLKN 300755
MTRP68
METAR KP68 300753Z AUTO 20003KT 02/M12 A3023 RMK AO1 SLP195
T00171117 402281056





000
SAUS45 KLKN 300655
MTRP68
METAR KP68 300653Z AUTO 18004KT 03/M12 A3022 RMK AO1 SLP195
T00331122





000
SAUS45 KLKN 300655
MTRP68
METAR KP68 300653Z AUTO 18004KT 03/M12 A3022 RMK AO1 SLP195
T00331122





000
SAUS45 KLKN 300555
MTRP68
METAR KP68 300553Z AUTO 16005KT 06/M12 A3022 RMK AO1 SLP191
T00561117 10217 20039 51011





000
SAUS45 KLKN 300555
MTRP68
METAR KP68 300553Z AUTO 16005KT 06/M12 A3022 RMK AO1 SLP191
T00561117 10217 20039 51011





000
SAUS45 KLKN 300454
MTRP68
METAR KP68 300453Z AUTO 14009KT 09/M11 A3021 RMK AO1 SLP188
T00891111





000
SAUS45 KLKN 300454
MTRP68
METAR KP68 300453Z AUTO 14009KT 09/M11 A3021 RMK AO1 SLP188
T00891111





000
SAUS45 KLKN 300355
MTRP68
METAR KP68 300353Z AUTO VRB04KT 11/M12 A3020 RMK AO1 SLP185
T01111122





000
SAUS45 KLKN 300355
MTRP68
METAR KP68 300353Z AUTO VRB04KT 11/M12 A3020 RMK AO1 SLP185
T01111122





000
SAUS45 KLKN 300255
MTRP68
METAR KP68 300253Z AUTO 34007KT 13/M12 A3018 RMK AO1 SLP182
T01331122 53007





000
SAUS45 KLKN 300154
MTRP68
METAR KP68 300153Z AUTO 00000KT 18/M09 A3016 RMK AO1 SLP177
T01781094





000
SAUS45 KLKN 300054
MTRP68
METAR KP68 300053Z AUTO 10003KT 21/M11 A3015 RMK AO1 SLP173
T02111106





000
SAUS45 KLKN 300054
MTRP68
METAR KP68 300053Z AUTO 10003KT 21/M11 A3015 RMK AO1 SLP173
T02111106





000
SAUS45 KLKN 292355
MTRP68
METAR KP68 292353Z AUTO 08007KT 21/M11 A3015 RMK AO1 SLP173
T02111111 10228 20133 56017





000
SAUS45 KLKN 292355
MTRP68
METAR KP68 292353Z AUTO 08007KT 21/M11 A3015 RMK AO1 SLP173
T02111111 10228 20133 56017





000
SAUS45 KLKN 292255
MTRP68
METAR KP68 292253Z AUTO 09007KT 21/M11 A3017 RMK AO1 SLP177
T02111111





000
SAUS45 KLKN 292255
MTRP68
METAR KP68 292253Z AUTO 09007KT 21/M11 A3017 RMK AO1 SLP177
T02111111





000
SAUS45 KLKN 292154
MTRP68
METAR KP68 292153Z AUTO 00000KT 21/M12 A3019 RMK AO1 SLP180
T02061117





000
SAUS45 KLKN 292054
MTRP68
METAR KP68 292053Z AUTO 00000KT 20/M12 A3021 RMK AO1 SLP187
T02001122 56027





000
SAUS45 KLKN 291954
MTRP68
METAR KP68 291953Z AUTO VRB05KT 19/M12 A3025 RMK AO1 SLP201
T01941117





000
SAUS45 KLKN 291954
MTRP68
METAR KP68 291953Z AUTO VRB05KT 19/M12 A3025 RMK AO1 SLP201
T01941117





000
SAUS45 KLKN 291854
MTRP68
METAR KP68 291853Z AUTO 00000KT 16/M13 A3027 RMK AO1 SLP217
T01561133





000
SAUS45 KLKN 291854
MTRP68
METAR KP68 291853Z AUTO 00000KT 16/M13 A3027 RMK AO1 SLP217
T01561133





000
SAUS45 KLKN 291754
MTRP68
METAR KP68 291753Z AUTO 14/M12 A3031 RMK AO1 SLP220 T01391122 10139
21056 58007





000
SAUS45 KLKN 291754
MTRP68
METAR KP68 291753Z AUTO 14/M12 A3031 RMK AO1 SLP220 T01391122 10139
21056 58007





000
SAUS45 KLKN 291654
MTRP68
METAR KP68 291653Z AUTO 02007KT 11/M11 A3032 RMK AO1 SLP236
T01111111





000
SAUS45 KLKN 291554
MTRP68
METAR KP68 291553Z AUTO 04004KT 09/M13 A3032 RMK AO1 SLP231
T00891128





000
SAUS45 KLKN 291554
MTRP68
METAR KP68 291553Z AUTO 04004KT 09/M13 A3032 RMK AO1 SLP231
T00891128





000
SAUS45 KLKN 291454
MTRP68
METAR KP68 291453Z AUTO 00000KT 04/M12 A3033 RMK AO1 SLP245
T00391117 53001





000
SAUS45 KLKN 291354
MTRP68
METAR KP68 291353Z AUTO 00000KT M02/M13 A3032 RMK AO1 SLP243
T10171128





000
SAUS45 KLKN 291354
MTRP68
METAR KP68 291353Z AUTO 00000KT M02/M13 A3032 RMK AO1 SLP243
T10171128





000
SAUS45 KLKN 291254
MTRP68
METAR KP68 291253Z AUTO 20005KT M04/M13 A3032 RMK AO1 SLP240
T10391128





000
SAUS45 KLKN 291254
MTRP68
METAR KP68 291253Z AUTO 20005KT M04/M13 A3032 RMK AO1 SLP240
T10391128





000
SAUS45 KLKN 291154
MTRP68
METAR KP68 291153Z AUTO 14005KT M03/M12 A3033 RMK AO1 SLP234
T10331122 10078 21033 53004





000
SAUS45 KLKN 291154
MTRP68
METAR KP68 291153Z AUTO 14005KT M03/M12 A3033 RMK AO1 SLP234
T10331122 10078 21033 53004





000
SAUS45 KLKN 291054
MTRP68
METAR KP68 291053Z AUTO 25004KT M02/M12 A3031 RMK AO1 SLP228
T10221122





000
SAUS45 KLKN 290954
MTRP68
METAR KP68 290953Z AUTO 14003KT M01/M12 A3031 RMK AO1 SLP222
T10111117





000
SAUS45 KLKN 290954
MTRP68
METAR KP68 290953Z AUTO 14003KT M01/M12 A3031 RMK AO1 SLP222
T10111117





000
SAUS45 KLKN 290855
MTRP68
METAR KP68 290853Z AUTO 19005KT 01/M11 A3031 RMK AO1 SLP221
T00061111 58000





000
SAUS45 KLKN 290855
MTRP68
METAR KP68 290853Z AUTO 19005KT 01/M11 A3031 RMK AO1 SLP221
T00061111 58000





000
SAUS45 KLKN 290754
MTRP68
METAR KP68 290753Z AUTO 00000KT 00/M11 A3032 RMK AO1 SLP226
T00001111 402221006





000
SAUS45 KLKN 290754
MTRP68
METAR KP68 290753Z AUTO 00000KT 00/M11 A3032 RMK AO1 SLP226
T00001111 402221006





000
SAUS45 KLKN 290655
MTRP68
METAR KP68 290653Z AUTO 18005KT 01/M11 A3032 RMK AO1 SLP226
T00111111





000
SAUS45 KLKN 290655
MTRP68
METAR KP68 290653Z AUTO 18005KT 01/M11 A3032 RMK AO1 SLP226
T00111111





000
SAUS45 KLKN 290555
MTRP68
METAR KP68 290553Z AUTO 00000KT 07/M09 A3031 RMK AO1 SLP215
T00721089 10206 20050 51020





000
SAUS45 KLKN 290555
MTRP68
METAR KP68 290553Z AUTO 00000KT 07/M09 A3031 RMK AO1 SLP215
T00721089 10206 20050 51020





000
SAUS45 KLKN 290454
MTRP68
METAR KP68 290453Z AUTO VRB04KT 06/M08 A3030 RMK AO1 SLP214
T00561083





000
SAUS45 KLKN 290454
MTRP68
METAR KP68 290453Z AUTO VRB04KT 06/M08 A3030 RMK AO1 SLP214
T00561083





000
SAUS45 KLKN 290354
MTRP68
METAR KP68 290353Z AUTO 01006KT 08/M09 A3028 RMK AO1 SLP206
T00831089





000
SAUS45 KLKN 290354
MTRP68
METAR KP68 290353Z AUTO 01006KT 08/M09 A3028 RMK AO1 SLP206
T00831089





000
SAUS45 KLKN 290254
MTRP68
METAR KP68 290253Z AUTO 34005KT 09/M08 A3024 RMK AO1 SLP203
T00941078 51012





000
SAUS45 KLKN 290254
MTRP68
METAR KP68 290253Z AUTO 34005KT 09/M08 A3024 RMK AO1 SLP203
T00941078 51012





000
SAUS45 KLKN 290155
MTRP68
METAR KP68 290153Z AUTO 02012KT 15/M08 A3023 RMK AO1 SLP202
T01501083





000
SAUS45 KLKN 290155
MTRP68
METAR KP68 290153Z AUTO 02012KT 15/M08 A3023 RMK AO1 SLP202
T01501083





000
SAUS45 KLKN 290054
MTRP68
METAR KP68 290053Z AUTO 36012KT 18/M09 A3022 RMK AO1 SLP190
T01831094





000
SAUS45 KLKN 290054
MTRP68
METAR KP68 290053Z AUTO 36012KT 18/M09 A3022 RMK AO1 SLP190
T01831094





000
SAUS45 KLKN 282354
MTRP68
METAR KP68 282353Z AUTO 36015G20KT 21/M12 A3020 RMK AO1 SLP175
T02061117 10222 20178 55010





000
SAUS45 KLKN 282354
MTRP68
METAR KP68 282353Z AUTO 36015G20KT 21/M12 A3020 RMK AO1 SLP175
T02061117 10222 20178 55010





000
SAUS45 KLKN 282254
MTRP68
METAR KP68 282253Z AUTO 30010KT 260V330 21/M17 A3020 RMK AO1 WSHFT
2149 SLP173 T02111172





000
SAUS45 KLKN 282254
MTRP68
METAR KP68 282253Z AUTO 30010KT 260V330 21/M17 A3020 RMK AO1 WSHFT
2149 SLP173 T02111172





000
SAUS45 KLKN 282208
MTRP68
SPECI KP68 282206Z AUTO 32014G20KT 22/M17 A3021 RMK AO1 WSHFT 2149
T02221167





000
SAUS45 KLKN 282155
MTRP68
METAR KP68 282153Z AUTO 33010G18KT 22/M17 A3020 RMK AO1 SLP174
T02171172





000
SAUS45 KLKN 282155
MTRP68
METAR KP68 282153Z AUTO 33010G18KT 22/M17 A3020 RMK AO1 SLP174
T02171172





000
SAUS45 KLKN 282055
MTRP68
METAR KP68 282053Z AUTO 28009G18KT 21/M16 A3024 RMK AO1 SLP181
T02111161 56009





000
SAUS45 KLKN 281955
MTRP68
METAR KP68 281953Z AUTO 29015G20KT 21/M13 A3025 RMK AO1 SLP184
T02111128





000
SAUS45 KLKN 281855
MTRP68
METAR KP68 281853Z AUTO 28009G15KT 20/M12 A3026 RMK AO1 SLP190
T02001117





000
SAUS45 KLKN 281855
MTRP68
METAR KP68 281853Z AUTO 28009G15KT 20/M12 A3026 RMK AO1 SLP190
T02001117





000
SAUS45 KLKN 281754
MTRP68
METAR KP68 281753Z AUTO 35004KT 18/M10 A3027 RMK AO1 SLP190
T01831100 10189 20011 50003





000
SAUS45 KLKN 281754
MTRP68
METAR KP68 281753Z AUTO 35004KT 18/M10 A3027 RMK AO1 SLP190
T01831100 10189 20011 50003





000
SAUS45 KLKN 281655
MTRP68
METAR KP68 281653Z AUTO 29008KT 17/M08 A3028 RMK AO1 SLP191
T01721078





000
SAUS45 KLKN 281655
MTRP68
METAR KP68 281653Z AUTO 29008KT 17/M08 A3028 RMK AO1 SLP191
T01721078





000
SAUS45 KLKN 281554
MTRP68
METAR KP68 281553Z AUTO 31011KT 16/M06 A3027 RMK AO1 SLP187
T01561061





000
SAUS45 KLKN 281455
MTRP68
METAR KP68 281453Z AUTO 21004KT 09/M06 A3026 RMK AO1 SLP195
T00891056 53015





000
SAUS45 KLKN 281455
MTRP68
METAR KP68 281453Z AUTO 21004KT 09/M06 A3026 RMK AO1 SLP195
T00891056 53015





000
SAUS45 KLKN 281355
MTRP68
METAR KP68 281353Z AUTO 24004KT 01/M08 A3024 RMK AO1 SLP194
T00111078





000
SAUS45 KLKN 281254
MTRP68
METAR KP68 281253Z AUTO 20006KT 02/M07 A3021 RMK AO1 SLP178
T00221072





000
SAUS45 KLKN 281254
MTRP68
METAR KP68 281253Z AUTO 20006KT 02/M07 A3021 RMK AO1 SLP178
T00221072





000
SAUS45 KLKN 281155
MTRP68
METAR KP68 281153Z AUTO 20004KT 05/M06 A3021 RMK AO1 SLP168
T00501061 10111 20039 53005





000
SAUS45 KLKN 281155
MTRP68
METAR KP68 281153Z AUTO 20004KT 05/M06 A3021 RMK AO1 SLP168
T00501061 10111 20039 53005





000
SAUS45 KLKN 281055
MTRP68
METAR KP68 281053Z AUTO 21005KT 04/M06 A3019 RMK AO1 SLP166
T00391061





000
SAUS45 KLKN 281055
MTRP68
METAR KP68 281053Z AUTO 21005KT 04/M06 A3019 RMK AO1 SLP166
T00391061





000
SAUS45 KLKN 280955
MTRP68
METAR KP68 280953Z AUTO 20005KT 05/M06 A3018 RMK AO1 SLP163
T00501061





000
SAUS45 KLKN 280854
MTRP68
METAR KP68 280853Z AUTO 20009KT 08/M06 A3019 RMK AO1 SLP162
T00781056 54000





000
SAUS45 KLKN 280854
MTRP68
METAR KP68 280853Z AUTO 20009KT 08/M06 A3019 RMK AO1 SLP162
T00781056 54000





000
SAUS45 KLKN 280754
MTRP68
METAR KP68 280753Z AUTO 18006KT 08/M06 A3019 RMK AO1 SLP162
T00781056 402500006





000
SAUS45 KLKN 280754
MTRP68
METAR KP68 280753Z AUTO 18006KT 08/M06 A3019 RMK AO1 SLP162
T00781056 402500006





000
SAUS45 KLKN 280654
MTRP68
METAR KP68 280653Z AUTO 19007KT 08/M06 A3019 RMK AO1 SLP165
T00781061





000
SAUS45 KLKN 280554
MTRP68
METAR KP68 280553Z AUTO 20004KT 11/M06 A3019 RMK AO1 SLP165
T01111056 10250 20111 51009





000
SAUS45 KLKN 280554
MTRP68
METAR KP68 280553Z AUTO 20004KT 11/M06 A3019 RMK AO1 SLP165
T01111056 10250 20111 51009





    US Dept of Commerce
    National Oceanic and Atmospheric Administration
    National Weather Service
    1325 East West Highway
    Silver Spring, MD 20910
    Page Author: NWS Internet Services Team
Disclaimer
Information Quality
Credits
Glossary
Privacy Policy
Freedom of Information Act (FOIA)
About Us
Career Opportunities